createdAt,value
2022-09-26T00:01:47.362Z,92.77
2022-09-26T00:04:31.839Z,92.49
2022-09-26T00:07:04.090Z,92.49
2022-09-26T00:09:35.410Z,93.17
2022-09-26T00:12:07.580Z,92.62
2022-09-26T00:14:38.909Z,92.63
2022-09-26T00:17:10.209Z,92.96
2022-09-26T00:19:41.527Z,92.97
2022-09-26T00:22:12.765Z,92.94
2022-09-26T00:24:44.037Z,93.31
2022-09-26T00:27:15.328Z,93.05
2022-09-26T00:29:46.750Z,93.01
2022-09-26T00:32:18.022Z,93.27
2022-09-26T00:34:50.499Z,93.38
2022-09-26T00:37:21.754Z,93.56
2022-09-26T00:39:53.204Z,93.66
2022-09-26T00:42:25.650Z,94.05
2022-09-26T00:44:56.962Z,93.16
2022-09-26T00:47:45.324Z,93.41
2022-09-26T00:50:24.065Z,93.56
2022-09-26T00:53:12.720Z,94.17
2022-09-26T00:55:50.177Z,93.79
2022-09-26T00:58:30.521Z,93.96
2022-09-26T01:01:02.187Z,93.56
2022-09-26T01:03:38.086Z,93.50
2022-09-26T01:06:09.725Z,93.72
2022-09-26T01:08:45.217Z,93.84
2022-09-26T01:11:17.317Z,93.48
2022-09-26T01:13:51.387Z,93.27
2022-09-26T01:16:22.724Z,93.46
2022-09-26T01:18:54.740Z,93.48
2022-09-26T01:21:44.973Z,93.68
2022-09-26T01:24:44.283Z,93.30
2022-09-26T01:27:59.973Z,93.04
2022-09-26T01:31:05.846Z,93.27
2022-09-26T01:34:01.233Z,93.53
2022-09-26T01:36:50.303Z,93.52
2022-09-26T01:40:02.871Z,93.33
2022-09-26T01:42:55.307Z,92.93
2022-09-26T01:45:37.013Z,92.88
2022-09-26T01:48:18.443Z,93.20
2022-09-26T01:50:57.450Z,93.36
2022-09-26T01:53:41.671Z,93.42
2022-09-26T01:56:18.757Z,94.00
2022-09-26T01:58:59.309Z,93.51
2022-09-26T02:01:37.515Z,93.72
2022-09-26T02:04:21.972Z,93.81
2022-09-26T02:07:03.801Z,94.11
2022-09-26T02:09:41.233Z,93.89
2022-09-26T02:12:20.819Z,93.98
2022-09-26T02:14:56.061Z,93.98
2022-09-26T02:17:33.283Z,94.13
2022-09-26T02:20:20.169Z,93.81
2022-09-26T02:22:51.540Z,93.68
2022-09-26T02:25:22.817Z,93.56
2022-09-26T02:27:54.634Z,94.17
2022-09-26T02:30:26.527Z,94.09
2022-09-26T02:32:58.171Z,94.17
2022-09-26T02:35:48.056Z,93.74
2022-09-26T02:38:20.182Z,94.24
2022-09-26T02:41:34.314Z,94.07
2022-09-26T02:44:14.975Z,94.57
2022-09-26T02:47:22.906Z,94.71
2022-09-26T02:50:19.041Z,93.93
2022-09-26T02:53:21.274Z,94.59
2022-09-26T02:56:07.714Z,94.30
2022-09-26T02:59:03.294Z,94.53
2022-09-26T03:01:43.944Z,93.83
2022-09-26T03:04:40.512Z,94.55
2022-09-26T03:07:16.580Z,94.15
2022-09-26T03:09:51.524Z,94.36
2022-09-26T03:12:24.928Z,94.63
2022-09-26T03:14:59.073Z,94.45
2022-09-26T03:17:33.319Z,94.63
2022-09-26T03:20:11.024Z,94.75
2022-09-26T03:22:45.013Z,94.52
2022-09-26T03:25:20.243Z,94.30
2022-09-26T03:27:53.565Z,94.59
2022-09-26T03:30:24.847Z,94.79
2022-09-26T03:32:56.093Z,95.05
2022-09-26T03:35:27.359Z,94.63
2022-09-26T03:37:58.678Z,94.61
2022-09-26T03:40:29.977Z,95.19
2022-09-26T03:43:01.340Z,94.95
2022-09-26T03:45:35.826Z,95.08
2022-09-26T03:48:07.195Z,95.00
2022-09-26T03:50:38.465Z,94.64
2022-09-26T03:53:10.309Z,94.65
2022-09-26T03:55:42.984Z,94.56
2022-09-26T03:58:15.345Z,94.48
2022-09-26T04:00:46.655Z,94.60
2022-09-26T04:03:17.959Z,95.03
2022-09-26T04:05:49.224Z,94.61
2022-09-26T04:08:20.486Z,94.96
2022-09-26T04:10:51.759Z,94.73
2022-09-26T04:13:49.594Z,94.58
2022-09-26T04:16:14.785Z,94.73
2022-09-26T04:18:46.123Z,94.70
2022-09-26T04:21:17.422Z,95.07
2022-09-26T04:23:50.177Z,94.14
2022-09-26T04:26:24.320Z,94.80
2022-09-26T04:28:57.354Z,94.45
2022-09-26T04:31:29.238Z,94.88
2022-09-26T04:34:00.535Z,94.46
2022-09-26T04:36:32.608Z,94.62
2022-09-26T04:39:04.474Z,94.80
2022-09-26T04:41:36.673Z,94.26
2022-09-26T04:44:10.217Z,94.70
2022-09-26T04:46:41.494Z,94.40
2022-09-26T04:49:13.051Z,94.23
2022-09-26T04:51:44.486Z,94.76
2022-09-26T04:54:16.299Z,94.16
2022-09-26T04:56:47.612Z,94.42
2022-09-26T04:59:21.653Z,94.19
2022-09-26T05:01:54.534Z,94.81
2022-09-26T05:04:27.777Z,94.45
2022-09-26T05:06:59.975Z,94.65
2022-09-26T05:09:35.719Z,94.16
2022-09-26T05:12:07.434Z,94.48
2022-09-26T05:14:38.821Z,94.81
2022-09-26T05:17:11.084Z,94.93
2022-09-26T05:19:43.143Z,94.45
2022-09-26T05:22:14.397Z,94.76
2022-09-26T05:25:04.502Z,94.83
2022-09-26T05:27:35.778Z,94.95
2022-09-26T05:30:08.002Z,94.18
2022-09-26T05:32:39.916Z,94.11
2022-09-26T05:35:12.476Z,94.30
2022-09-26T05:37:43.756Z,94.40
2022-09-26T05:40:34.607Z,94.64
2022-09-26T05:43:06.926Z,94.29
2022-09-26T05:45:38.557Z,94.69
2022-09-26T05:48:09.862Z,94.25
2022-09-26T05:50:43.610Z,94.61
2022-09-26T05:53:15.103Z,94.42
2022-09-26T05:55:52.667Z,94.92
2022-09-26T05:58:23.990Z,94.65
2022-09-26T06:00:55.324Z,94.73
2022-09-26T06:03:28.950Z,94.56
2022-09-26T06:06:12.038Z,94.57
2022-09-26T06:08:43.963Z,94.84
2022-09-26T06:11:24.872Z,95.07
2022-09-26T06:13:58.228Z,94.94
2022-09-26T06:16:29.710Z,94.62
2022-09-26T06:19:02.447Z,94.85
2022-09-26T06:21:33.968Z,94.94
2022-09-26T06:24:06.105Z,94.95
2022-09-26T06:26:37.643Z,94.79
2022-09-26T06:29:10.847Z,94.75
2022-09-26T06:31:42.258Z,94.84
2022-09-26T06:34:14.599Z,94.96
2022-09-26T06:36:46.812Z,94.78
2022-09-26T06:39:18.252Z,94.90
2022-09-26T06:41:51.194Z,94.42
2022-09-26T06:44:23.752Z,94.58
2022-09-26T06:46:55.162Z,94.45
2022-09-26T06:49:27.479Z,94.62
2022-09-26T06:51:58.818Z,94.93
2022-09-26T06:54:30.562Z,94.39
2022-09-26T06:57:01.966Z,94.33
2022-09-26T06:59:33.230Z,94.49
2022-09-26T07:02:04.565Z,94.48
2022-09-26T07:04:36.002Z,94.32
2022-09-26T07:07:07.360Z,94.37
2022-09-26T07:09:40.137Z,94.90
2022-09-26T07:12:14.975Z,94.69
2022-09-26T07:14:51.362Z,94.71
2022-09-26T07:17:24.873Z,94.73
2022-09-26T07:19:56.147Z,94.94
2022-09-26T07:22:27.424Z,94.85
2022-09-26T07:24:58.695Z,95.09
2022-09-26T07:27:30.000Z,95.31
2022-09-26T07:30:01.566Z,95.63
2022-09-26T07:32:33.051Z,95.17
2022-09-26T07:35:04.637Z,95.12
2022-09-26T07:37:35.943Z,95.02
2022-09-26T07:40:07.766Z,94.96
2022-09-26T07:42:39.211Z,95.21
2022-09-26T07:45:27.763Z,95.11
2022-09-26T07:48:18.748Z,95.07
2022-09-26T07:50:55.676Z,95.07
2022-09-26T07:53:27.996Z,94.82
2022-09-26T07:56:12.065Z,94.62
2022-09-26T07:58:43.490Z,94.90
2022-09-26T08:01:16.464Z,94.62
2022-09-26T08:03:48.170Z,94.18
2022-09-26T08:06:20.799Z,94.26
2022-09-26T08:08:54.934Z,93.49
2022-09-26T08:11:27.146Z,93.13
2022-09-26T08:13:58.412Z,92.66
2022-09-26T08:16:29.794Z,92.58
2022-09-26T08:19:01.605Z,93.10
2022-09-26T08:21:32.883Z,92.78
2022-09-26T08:24:04.185Z,92.36
2022-09-26T08:26:43.234Z,92.41
2022-09-26T08:29:15.566Z,92.86
2022-09-26T08:31:47.595Z,92.02
2022-09-26T08:34:25.398Z,91.62
2022-09-26T08:36:57.031Z,90.84
2022-09-26T08:39:33.104Z,90.54
2022-09-26T08:42:13.096Z,90.39
2022-09-26T08:45:26.035Z,89.61
2022-09-26T08:48:14.723Z,89.21
2022-09-26T08:50:48.966Z,88.71
2022-09-26T08:53:29.412Z,88.24
2022-09-26T08:56:02.321Z,87.59
2022-09-26T08:58:42.812Z,87.50
2022-09-26T09:01:24.910Z,87.21
2022-09-26T09:04:05.027Z,87.22
2022-09-26T09:06:37.385Z,87.12
2022-09-26T09:09:14.650Z,86.80
2022-09-26T09:12:01.816Z,86.14
2022-09-26T09:15:23.567Z,85.57
2022-09-26T09:18:24.237Z,85.52
2022-09-26T09:21:14.924Z,84.91
2022-09-26T09:24:24.019Z,84.08
2022-09-26T09:30:15.287Z,83.84
2022-09-26T09:32:57.875Z,83.41
2022-09-26T09:35:45.348Z,83.47
2022-09-26T09:38:19.674Z,83.21
2022-09-26T09:40:57.457Z,82.37
2022-09-26T09:43:35.497Z,82.10
2022-09-26T09:46:23.594Z,81.48
2022-09-26T09:49:10.261Z,81.06
2022-09-26T09:51:54.762Z,80.95
2022-09-26T09:54:49.544Z,81.03
2022-09-26T09:57:33.186Z,80.89
2022-09-26T10:00:27.683Z,80.77
2022-09-26T10:03:24.995Z,80.48
2022-09-26T10:06:00.638Z,80.48
2022-09-26T10:08:36.610Z,80.39
2022-09-26T10:11:23.879Z,79.81
2022-09-26T10:14:01.171Z,79.78
2022-09-26T10:16:33.263Z,79.63
2022-09-26T10:19:09.024Z,78.76
2022-09-26T10:21:43.205Z,78.64
2022-09-26T10:24:38.696Z,78.71
2022-09-26T10:27:32.346Z,78.61
2022-09-26T10:30:18.659Z,78.21
2022-09-26T10:32:57.130Z,78.37
2022-09-26T10:35:40.478Z,78.12
2022-09-26T10:39:10.080Z,77.44
2022-09-26T10:41:44.965Z,78.46
2022-09-26T10:44:25.257Z,77.67
2022-09-26T10:47:00.263Z,77.56
2022-09-26T10:49:39.802Z,77.46
2022-09-26T10:52:19.730Z,77.34
2022-09-26T10:55:06.944Z,77.37
2022-09-26T10:57:45.596Z,77.41
2022-09-26T11:00:41.814Z,77.43
2022-09-26T11:03:15.823Z,78.04
2022-09-26T11:05:57.445Z,78.19
2022-09-26T11:08:37.842Z,78.43
2022-09-26T11:11:16.036Z,78.57
2022-09-26T11:14:03.224Z,78.48
2022-09-26T11:16:43.769Z,78.58
2022-09-26T11:19:26.735Z,79.04
2022-09-26T11:21:58.485Z,79.31
2022-09-26T11:24:59.301Z,79.49
2022-09-26T11:27:43.298Z,79.59
2022-09-26T11:30:20.862Z,80.07
2022-09-26T11:32:56.254Z,80.25
2022-09-26T11:35:33.628Z,80.48
2022-09-26T11:38:13.837Z,80.77
2022-09-26T11:41:04.264Z,81.16
2022-09-26T11:43:57.001Z,81.42
2022-09-26T11:46:48.120Z,81.38
2022-09-26T11:49:36.579Z,81.74
2022-09-26T11:52:30.558Z,81.89
2022-09-26T11:55:17.582Z,82.00
2022-09-26T11:58:18.754Z,82.22
2022-09-26T12:01:14.188Z,82.35
2022-09-26T12:04:15.911Z,82.57
2022-09-26T12:06:55.919Z,82.98
2022-09-26T12:09:51.414Z,82.71
2022-09-26T12:12:24.151Z,82.83
2022-09-26T12:15:08.861Z,82.63
2022-09-26T12:18:13.306Z,82.56
2022-09-26T12:21:11.273Z,83.21
2022-09-26T12:23:50.414Z,83.00
2022-09-26T12:26:29.945Z,82.93
2022-09-26T12:29:14.231Z,83.15
2022-09-26T12:32:21.787Z,82.04
2022-09-26T12:34:56.345Z,82.83
2022-09-26T12:37:46.053Z,83.73
2022-09-26T12:40:29.050Z,83.76
2022-09-26T12:43:31.694Z,83.89
2022-09-26T12:46:20.055Z,83.92
2022-09-26T12:49:04.339Z,83.88
2022-09-26T12:51:44.704Z,84.38
2022-09-26T12:54:28.490Z,84.14
2022-09-26T12:57:14.142Z,84.13
2022-09-26T12:59:58.091Z,84.52
2022-09-26T13:02:42.855Z,84.80
2022-09-26T13:05:14.829Z,84.78
2022-09-26T13:08:18.383Z,84.73
2022-09-26T13:11:07.865Z,85.07
2022-09-26T13:14:06.040Z,84.88
2022-09-26T13:16:57.493Z,85.19
2022-09-26T13:19:38.182Z,85.51
2022-09-26T13:22:24.290Z,85.08
2022-09-26T13:25:20.814Z,85.06
2022-09-26T13:28:04.995Z,85.72
2022-09-26T13:30:40.652Z,85.82
2022-09-26T13:33:47.169Z,85.41
2022-09-26T13:36:22.546Z,85.36
2022-09-26T13:39:16.778Z,85.70
2022-09-26T13:41:48.435Z,86.04
2022-09-26T13:44:27.002Z,86.02
2022-09-26T13:47:22.293Z,86.23
2022-09-26T13:50:19.808Z,86.74
2022-09-26T13:52:57.146Z,86.83
2022-09-26T13:55:29.073Z,87.15
2022-09-26T13:58:18.776Z,87.04
2022-09-26T14:00:53.168Z,87.20
2022-09-26T14:03:24.819Z,87.48
2022-09-26T14:06:08.164Z,87.56
2022-09-26T14:09:18.475Z,87.56
2022-09-26T14:11:51.759Z,88.06
2022-09-26T14:14:37.360Z,88.06
2022-09-26T14:17:42.832Z,88.40
2022-09-26T14:20:27.466Z,88.80
2022-09-26T14:23:00.826Z,89.27
2022-09-26T14:25:47.559Z,89.06
2022-09-26T14:28:33.231Z,89.18
2022-09-26T14:31:34.269Z,89.52
2022-09-26T14:34:16.853Z,89.62
2022-09-26T14:36:49.723Z,89.60
2022-09-26T14:39:27.716Z,89.71
2022-09-26T14:42:08.410Z,89.86
2022-09-26T14:44:51.077Z,89.69
2022-09-26T14:47:24.629Z,89.90
2022-09-26T14:50:03.058Z,90.25
2022-09-26T14:52:37.574Z,90.03
2022-09-26T14:55:15.207Z,90.53
2022-09-26T14:57:46.701Z,90.51
2022-09-26T15:00:54.437Z,90.58
2022-09-26T15:03:25.920Z,90.46
2022-09-26T15:05:58.873Z,90.32
2022-09-26T15:08:32.421Z,90.69
2022-09-26T15:11:04.998Z,90.40
2022-09-26T15:13:38.741Z,90.23
2022-09-26T15:16:21.954Z,90.15
2022-09-26T15:19:03.035Z,90.35
2022-09-26T15:21:43.373Z,90.44
2022-09-26T15:24:35.767Z,90.63
2022-09-26T15:27:10.757Z,90.71
2022-09-26T15:29:50.377Z,90.98
2022-09-26T15:32:26.706Z,91.22
2022-09-26T15:35:01.425Z,91.29
2022-09-26T15:37:34.958Z,90.96
2022-09-26T15:40:18.146Z,90.93
2022-09-26T15:42:59.094Z,91.13
2022-09-26T15:45:46.093Z,91.54
2022-09-26T15:48:20.170Z,91.44
2022-09-26T15:51:00.607Z,91.23
2022-09-26T15:53:39.519Z,91.57
2022-09-26T15:56:18.918Z,91.41
2022-09-26T15:58:56.513Z,91.61
2022-09-26T16:01:31.606Z,91.92
2022-09-26T16:04:13.317Z,91.85
2022-09-26T16:07:22.693Z,91.98
2022-09-26T16:09:56.002Z,92.09
2022-09-26T16:12:30.101Z,92.29
2022-09-26T16:15:05.783Z,92.25
2022-09-26T16:17:49.064Z,92.47
2022-09-26T16:20:20.846Z,92.38
2022-09-26T16:22:59.161Z,92.38
2022-09-26T16:25:35.128Z,92.41
2022-09-26T16:28:08.946Z,92.43
2022-09-26T16:30:44.376Z,92.48
2022-09-26T16:33:16.018Z,92.46
2022-09-26T16:35:48.584Z,92.89
2022-09-26T16:38:28.873Z,92.74
2022-09-26T16:41:09.737Z,92.77
2022-09-26T16:43:41.417Z,92.77
2022-09-26T16:46:17.751Z,92.82
2022-09-26T16:48:57.776Z,93.05
2022-09-26T16:51:40.801Z,92.99
2022-09-26T16:54:21.732Z,92.89
2022-09-26T16:56:53.082Z,92.84
2022-09-26T16:59:32.195Z,93.17
2022-09-26T17:02:03.719Z,93.19
2022-09-26T17:04:36.802Z,93.38
2022-09-26T17:07:13.603Z,93.32
2022-09-26T17:09:44.917Z,93.30
2022-09-26T17:12:21.466Z,93.18
2022-09-26T17:14:53.149Z,93.48
2022-09-26T17:17:30.434Z,93.65
2022-09-26T17:20:03.173Z,93.42
2022-09-26T17:22:34.612Z,93.54
2022-09-26T17:25:06.486Z,93.48
2022-09-26T17:27:39.706Z,93.60
2022-09-26T17:30:16.858Z,93.53
2022-09-26T17:32:51.324Z,93.53
2022-09-26T17:35:24.860Z,93.87
2022-09-26T17:37:56.378Z,93.71
2022-09-26T17:40:30.493Z,93.70
2022-09-26T17:43:01.970Z,93.89
2022-09-26T17:45:35.836Z,93.67
2022-09-26T17:48:14.203Z,93.93
2022-09-26T17:50:46.748Z,93.83
2022-09-26T17:53:20.759Z,93.80
2022-09-26T17:55:53.072Z,94.00
2022-09-26T17:58:24.365Z,93.82
2022-09-26T18:00:56.360Z,93.94
2022-09-26T18:03:32.591Z,93.69
2022-09-26T18:06:03.914Z,93.78
2022-09-26T18:08:39.109Z,94.11
2022-09-26T18:11:17.370Z,94.02
2022-09-26T18:13:54.567Z,94.08
2022-09-26T18:16:25.942Z,93.79
2022-09-26T18:18:57.281Z,93.93
2022-09-26T18:21:28.580Z,94.11
2022-09-26T18:24:02.141Z,94.11
2022-09-26T18:26:37.978Z,93.71
2022-09-26T18:29:13.423Z,93.87
2022-09-26T18:31:46.341Z,94.27
2022-09-26T18:34:19.773Z,94.04
2022-09-26T18:36:52.603Z,94.20
2022-09-26T18:39:24.962Z,94.16
2022-09-26T18:42:01.233Z,94.27
2022-09-26T18:44:34.979Z,93.90
2022-09-26T18:47:14.357Z,93.80
2022-09-26T18:49:46.484Z,94.29
2022-09-26T18:52:18.578Z,94.22
2022-09-26T18:55:09.943Z,94.10
2022-09-26T18:57:59.827Z,94.11
2022-09-26T19:00:31.379Z,94.33
2022-09-26T19:03:04.616Z,94.17
2022-09-26T19:05:38.430Z,94.36
2022-09-26T19:08:27.297Z,94.38
2022-09-26T19:11:00.709Z,94.14
2022-09-26T19:13:32.323Z,94.20
2022-09-26T19:16:04.031Z,94.05
2022-09-26T19:18:36.691Z,94.27
2022-09-26T19:21:32.971Z,94.28
2022-09-26T19:24:12.218Z,94.45
2022-09-26T19:26:43.813Z,94.06
2022-09-26T19:29:19.443Z,94.37
2022-09-26T19:31:51.023Z,94.29
2022-09-26T19:34:22.723Z,94.44
2022-09-26T19:36:54.228Z,94.47
2022-09-26T19:39:26.109Z,94.55
2022-09-26T19:41:57.398Z,94.59
2022-09-26T19:44:28.762Z,94.60
2022-09-26T19:47:00.160Z,94.49
2022-09-26T19:49:32.589Z,94.34
2022-09-26T19:52:03.887Z,94.81
2022-09-26T19:54:35.387Z,94.92
2022-09-26T19:57:20.378Z,94.78
2022-09-26T19:59:51.745Z,95.03
2022-09-26T20:02:31.356Z,94.91
2022-09-26T20:05:13.229Z,94.90
2022-09-26T20:07:44.795Z,94.99
2022-09-26T20:10:19.345Z,94.95
2022-09-26T20:12:51.222Z,94.88
2022-09-26T20:15:22.567Z,95.03
2022-09-26T20:17:55.049Z,94.85
2022-09-26T20:20:31.537Z,94.94
2022-09-26T20:23:02.976Z,94.94
2022-09-26T20:25:36.562Z,94.99
2022-09-26T20:28:12.231Z,95.02
2022-09-26T20:30:52.698Z,95.10
2022-09-26T20:33:26.166Z,95.11
2022-09-26T20:36:04.234Z,95.07
2022-09-26T20:38:47.859Z,95.33
2022-09-26T20:41:37.476Z,95.10
2022-09-26T20:44:27.171Z,95.12
2022-09-26T20:47:01.463Z,95.50
2022-09-26T20:49:42.428Z,95.66
2022-09-26T20:52:20.606Z,95.45
2022-09-26T20:54:52.706Z,96.07
2022-09-26T20:57:24.638Z,96.02
2022-09-26T20:59:56.705Z,95.99
2022-09-26T21:02:39.153Z,96.14
2022-09-26T21:05:24.367Z,96.21
2022-09-26T21:07:57.275Z,96.22
2022-09-26T21:10:33.026Z,96.13
2022-09-26T21:13:04.338Z,96.49
2022-09-26T21:15:36.738Z,96.52
2022-09-26T21:18:21.653Z,96.55
2022-09-26T21:20:54.669Z,96.54
2022-09-26T21:23:26.089Z,96.87
2022-09-26T21:25:57.329Z,96.81
2022-09-26T21:28:28.891Z,96.71
2022-09-26T21:31:04.822Z,96.80
2022-09-26T21:33:36.365Z,96.63
2022-09-26T21:36:08.882Z,97.26
2022-09-26T21:38:40.158Z,96.97
2022-09-26T21:41:12.102Z,96.86
2022-09-26T21:43:49.723Z,96.89
2022-09-26T21:46:21.131Z,97.11
2022-09-26T21:48:53.476Z,97.09
2022-09-26T21:51:27.735Z,97.27
2022-09-26T21:54:22.109Z,97.23
2022-09-26T21:57:00.534Z,97.18
2022-09-26T21:59:32.006Z,97.58
2022-09-26T22:02:03.359Z,97.29
2022-09-26T22:04:34.844Z,97.58
2022-09-26T22:07:06.151Z,97.33
2022-09-26T22:09:37.494Z,97.19
2022-09-26T22:12:08.737Z,97.33
2022-09-26T22:14:40.114Z,97.61
2022-09-26T22:17:11.871Z,97.34
2022-09-26T22:19:43.248Z,97.40
2022-09-26T22:22:17.518Z,97.52
2022-09-26T22:24:48.759Z,97.23
2022-09-26T22:27:20.956Z,97.23
2022-09-26T22:29:52.233Z,97.29
2022-09-26T22:32:23.534Z,97.60
2022-09-26T22:34:54.798Z,97.61
2022-09-26T22:37:26.185Z,97.47
2022-09-26T22:39:58.228Z,97.31
2022-09-26T22:42:29.781Z,97.52
2022-09-26T22:45:01.085Z,97.41
2022-09-26T22:47:32.339Z,97.40
2022-09-26T22:50:03.996Z,97.75
2022-09-26T22:52:35.706Z,97.60
2022-09-26T22:55:08.182Z,97.63
2022-09-26T22:57:39.504Z,97.43
2022-09-26T23:00:12.977Z,97.39
2022-09-26T23:02:44.333Z,97.49
2022-09-26T23:05:15.649Z,97.36
2022-09-26T23:07:46.907Z,97.32
2022-09-26T23:10:21.973Z,97.25
2022-09-26T23:12:53.258Z,97.31
2022-09-26T23:15:24.532Z,97.36
2022-09-26T23:17:55.851Z,97.66
2022-09-26T23:20:27.098Z,97.60
2022-09-26T23:22:58.357Z,97.81
2022-09-26T23:25:29.658Z,97.53
2022-09-26T23:28:01.950Z,97.37
2022-09-26T23:30:33.348Z,97.27
2022-09-26T23:33:04.674Z,97.41
2022-09-26T23:35:36.308Z,97.51
2022-09-26T23:38:07.723Z,97.61
2022-09-26T23:40:39.134Z,97.52
2022-09-26T23:43:10.789Z,97.59
2022-09-26T23:45:42.197Z,97.66
2022-09-26T23:48:13.651Z,97.74
2022-09-26T23:50:46.438Z,97.74
2022-09-26T23:53:17.845Z,97.19
2022-09-26T23:55:49.891Z,97.66
2022-09-26T23:58:21.261Z,97.42
